createdAt,value
2018-08-09T00:01:36.008Z,10.17
2018-08-09T00:04:04.527Z,11.40
2018-08-09T00:06:33.097Z,8.03
2018-08-09T00:09:01.608Z,9.30
2018-08-09T00:11:30.153Z,9.70
2018-08-09T00:13:58.666Z,12.80
2018-08-09T00:16:27.197Z,9.97
2018-08-09T00:18:55.722Z,12.50
2018-08-09T00:21:24.272Z,10.07
2018-08-09T00:23:52.877Z,9.40
2018-08-09T00:26:21.359Z,10.77
2018-08-09T00:28:49.905Z,9.20
2018-08-09T00:31:18.521Z,12.57
2018-08-09T00:33:47.064Z,9.90
2018-08-09T00:36:15.573Z,12.03
2018-08-09T00:38:44.109Z,11.50
2018-08-09T00:41:12.619Z,12.93
2018-08-09T00:43:41.177Z,13.50
2018-08-09T00:46:09.760Z,12.87
2018-08-09T00:48:38.301Z,9.37
2018-08-09T00:51:06.817Z,11.87
2018-08-09T00:53:35.383Z,12.20
2018-08-09T00:56:03.913Z,10.20
2018-08-09T00:58:32.468Z,8.60
2018-08-09T01:01:00.983Z,11.70
2018-08-09T01:03:29.970Z,11.60
2018-08-09T01:05:58.472Z,13.43
2018-08-09T01:08:27.044Z,14.17
2018-08-09T01:10:56.313Z,12.30
2018-08-09T01:13:24.863Z,9.93
2018-08-09T01:15:53.388Z,8.10
2018-08-09T01:18:21.949Z,12.67
2018-08-09T01:20:50.465Z,14.93
2018-08-09T01:23:19.021Z,11.60
2018-08-09T01:25:47.517Z,12.73
2018-08-09T01:28:16.049Z,12.53
2018-08-09T01:30:44.573Z,10.83
2018-08-09T01:33:13.113Z,11.43
2018-08-09T01:35:41.626Z,12.33
2018-08-09T01:38:10.174Z,11.77
2018-08-09T01:40:38.670Z,13.90
2018-08-09T01:43:18.608Z,12.33
2018-08-09T01:45:47.114Z,12.13
2018-08-09T01:48:15.645Z,10.20
2018-08-09T01:50:44.152Z,11.73
2018-08-09T01:53:12.709Z,8.93
2018-08-09T01:55:41.218Z,11.17
2018-08-09T01:58:09.740Z,15.20
2018-08-09T02:00:38.242Z,11.97
2018-08-09T02:03:06.822Z,11.53
2018-08-09T02:05:35.344Z,10.60
2018-08-09T02:08:03.941Z,13.00
2018-08-09T02:10:32.452Z,11.80
2018-08-09T02:13:00.974Z,12.50
2018-08-09T02:15:29.511Z,9.27
2018-08-09T02:17:58.094Z,13.27
2018-08-09T02:20:26.591Z,11.53
2018-08-09T02:22:55.354Z,9.43
2018-08-09T02:25:23.853Z,9.37
2018-08-09T02:27:52.384Z,9.13
2018-08-09T02:30:20.894Z,14.90
2018-08-09T02:32:49.426Z,9.13
2018-08-09T02:35:17.944Z,10.63
2018-08-09T02:37:46.478Z,9.83
2018-08-09T02:40:15.012Z,8.47
2018-08-09T02:42:43.513Z,13.47
2018-08-09T02:45:12.036Z,10.63
2018-08-09T02:47:40.534Z,13.57
2018-08-09T02:50:09.100Z,12.47
2018-08-09T02:52:37.641Z,11.30
2018-08-09T02:55:06.370Z,14.53
2018-08-09T02:57:35.501Z,11.13
2018-08-09T03:00:04.638Z,11.00
2018-08-09T03:02:33.160Z,13.33
2018-08-09T03:05:02.026Z,13.37
2018-08-09T03:07:30.569Z,11.57
2018-08-09T03:09:59.097Z,10.57
2018-08-09T03:12:27.593Z,12.63
2018-08-09T03:14:56.110Z,13.97
2018-08-09T03:17:24.685Z,14.43
2018-08-09T03:19:53.158Z,10.37
2018-08-09T03:22:21.649Z,11.80
2018-08-09T03:24:50.166Z,11.57
2018-08-09T03:27:18.652Z,12.60
2018-08-09T03:29:47.217Z,14.07
2018-08-09T03:32:15.743Z,13.30
2018-08-09T03:34:44.349Z,12.00
2018-08-09T03:37:12.841Z,11.20
2018-08-09T03:39:41.372Z,12.53
2018-08-09T03:42:09.945Z,10.63
2018-08-09T03:44:38.508Z,11.77
2018-08-09T03:47:07.025Z,11.00
2018-08-09T03:49:35.560Z,10.90
2018-08-09T03:52:04.137Z,10.60
2018-08-09T03:54:32.705Z,10.30
2018-08-09T03:57:01.213Z,10.83
2018-08-09T03:59:29.741Z,13.67
2018-08-09T04:01:58.261Z,11.77
2018-08-09T04:04:26.813Z,10.13
2018-08-09T04:06:55.313Z,13.87
2018-08-09T04:09:23.853Z,14.37
2018-08-09T04:11:52.460Z,16.20
2018-08-09T04:14:20.919Z,14.17
2018-08-09T04:16:49.422Z,12.17
2018-08-09T04:19:17.957Z,11.63
2018-08-09T04:21:46.482Z,14.93
2018-08-09T04:24:15.079Z,14.67
2018-08-09T04:26:43.645Z,15.53
2018-08-09T04:29:12.188Z,13.00
2018-08-09T04:31:40.683Z,14.27
2018-08-09T04:34:09.202Z,11.47
2018-08-09T04:36:37.718Z,11.87
2018-08-09T04:39:08.204Z,17.93
2018-08-09T04:41:36.740Z,13.37
2018-08-09T04:44:05.265Z,11.23
2018-08-09T04:46:33.868Z,13.03
2018-08-09T04:49:02.373Z,9.07
2018-08-09T04:51:31.153Z,13.80
2018-08-09T04:53:59.730Z,11.03
2018-08-09T04:56:28.303Z,13.03
2018-08-09T04:58:56.821Z,12.77
2018-08-09T05:01:25.390Z,13.93
2018-08-09T05:03:54.029Z,12.03
2018-08-09T05:06:22.707Z,14.00
2018-08-09T05:08:51.225Z,14.77
2018-08-09T05:11:19.762Z,11.50
2018-08-09T05:13:48.266Z,12.77
2018-08-09T05:16:20.696Z,11.53
2018-08-09T05:18:49.206Z,11.53
2018-08-09T05:21:17.753Z,10.47
2018-08-09T05:23:46.613Z,14.87
2018-08-09T05:26:15.417Z,13.30
2018-08-09T05:28:44.310Z,15.47
2018-08-09T05:31:12.825Z,11.70
2018-08-09T05:33:41.669Z,11.57
2018-08-09T05:36:10.232Z,17.53
2018-08-09T05:38:38.761Z,11.17
2018-08-09T05:41:07.611Z,12.80
2018-08-09T05:43:36.212Z,15.00
2018-08-09T05:46:04.792Z,14.93
2018-08-09T05:48:33.336Z,10.53
2018-08-09T05:51:01.865Z,9.23
2018-08-09T05:53:30.600Z,15.63
2018-08-09T05:55:59.654Z,17.20
2018-08-09T05:58:28.327Z,11.50
2018-08-09T06:00:57.195Z,18.10
2018-08-09T06:03:26.227Z,13.47
2018-08-09T06:05:55.206Z,15.03
2018-08-09T06:08:23.700Z,14.43
2018-08-09T06:10:52.565Z,12.47
2018-08-09T06:13:22.163Z,10.53
2018-08-09T06:15:50.790Z,11.33
2018-08-09T06:18:19.371Z,11.47
2018-08-09T06:20:47.889Z,16.13
2018-08-09T06:23:16.465Z,11.70
2018-08-09T06:25:45.042Z,11.93
2018-08-09T06:28:13.569Z,15.60
2018-08-09T06:30:42.434Z,14.70
2018-08-09T06:33:11.074Z,12.57
2018-08-09T06:35:39.975Z,19.77
2018-08-09T06:38:08.889Z,11.10
2018-08-09T06:40:37.555Z,12.20
2018-08-09T06:43:06.254Z,13.23
2018-08-09T06:45:34.749Z,15.27
2018-08-09T06:48:03.314Z,14.60
2018-08-09T06:50:32.213Z,12.37
2018-08-09T06:53:00.816Z,9.77
2018-08-09T06:55:29.515Z,11.83
2018-08-09T06:57:58.059Z,9.27
2018-08-09T07:00:26.889Z,8.63
2018-08-09T07:02:55.603Z,11.23
2018-08-09T07:05:24.128Z,10.03
2018-08-09T07:07:52.668Z,11.40
2018-08-09T07:10:21.168Z,12.20
2018-08-09T07:12:49.830Z,8.70
2018-08-09T07:15:18.634Z,13.13
2018-08-09T07:17:47.169Z,11.63
2018-08-09T07:20:15.684Z,9.60
2018-08-09T07:22:44.385Z,13.23
2018-08-09T07:25:17.295Z,13.17
2018-08-09T07:27:46.041Z,13.90
2018-08-09T07:30:14.774Z,12.77
2018-08-09T07:32:45.839Z,10.60
2018-08-09T07:35:14.408Z,16.00
2018-08-09T07:37:44.331Z,9.53
2018-08-09T07:40:17.705Z,11.27
2018-08-09T07:42:46.291Z,13.20
2018-08-09T07:45:14.832Z,15.47
2018-08-09T07:47:43.409Z,14.20
2018-08-09T07:50:11.937Z,10.63
2018-08-09T07:52:40.525Z,12.43
2018-08-09T07:55:10.529Z,7.80
2018-08-09T07:57:39.674Z,8.33
2018-08-09T08:00:10.672Z,8.80
2018-08-09T08:02:39.223Z,15.90
2018-08-09T08:05:08.060Z,16.20
2018-08-09T08:07:36.777Z,13.20
2018-08-09T08:10:07.273Z,8.93
2018-08-09T08:12:35.855Z,14.63
2018-08-09T08:15:05.958Z,11.13
2018-08-09T08:17:34.501Z,14.10
2018-08-09T08:20:03.034Z,11.40
2018-08-09T08:22:31.594Z,16.17
2018-08-09T08:25:00.132Z,12.07
2018-08-09T08:27:28.646Z,8.77
2018-08-09T08:29:57.405Z,12.93
2018-08-09T08:32:25.933Z,11.93
2018-08-09T08:34:54.462Z,9.60
2018-08-09T08:37:22.973Z,13.00
2018-08-09T08:39:51.505Z,12.50
2018-08-09T08:42:20.201Z,19.93
2018-08-09T08:44:48.957Z,18.30
2018-08-09T08:47:18.628Z,16.63
2018-08-09T08:49:47.284Z,21.87
2018-08-09T08:52:15.808Z,12.40
2018-08-09T08:54:44.446Z,17.57
2018-08-09T08:57:13.049Z,16.03
2018-08-09T08:59:41.638Z,20.20
2018-08-09T09:02:10.207Z,15.90
2018-08-09T09:04:38.995Z,9.83
2018-08-09T09:07:07.625Z,19.83
2018-08-09T09:09:36.196Z,16.60
2018-08-09T09:12:06.314Z,12.90
2018-08-09T09:14:38.377Z,12.23
2018-08-09T09:17:07.029Z,11.13
2018-08-09T09:19:35.676Z,12.67
2018-08-09T09:22:04.358Z,11.83
2018-08-09T09:24:32.920Z,12.93
2018-08-09T09:27:01.456Z,17.17
2018-08-09T09:29:30.024Z,12.67
2018-08-09T09:31:58.632Z,17.70
2018-08-09T09:34:27.353Z,10.47
2018-08-09T09:36:55.902Z,18.87
2018-08-09T09:39:24.479Z,17.27
2018-08-09T09:41:55.233Z,10.13
2018-08-09T09:44:23.977Z,13.47
2018-08-09T09:46:52.486Z,16.60
2018-08-09T09:49:21.864Z,10.53
2018-08-09T09:51:50.999Z,14.83
2018-08-09T09:54:19.577Z,9.63
2018-08-09T09:56:48.125Z,10.30
2018-08-09T09:59:16.690Z,14.73
2018-08-09T10:01:45.280Z,9.07
2018-08-09T10:04:13.757Z,16.57
2018-08-09T10:06:42.297Z,10.17
2018-08-09T10:09:12.021Z,12.37
2018-08-09T10:11:40.929Z,10.43
2018-08-09T10:14:09.627Z,14.27
2018-08-09T10:16:38.317Z,12.97
2018-08-09T10:19:06.934Z,8.53
2018-08-09T10:21:38.091Z,10.10
2018-08-09T10:24:07.098Z,9.40
2018-08-09T10:26:36.508Z,10.50
2018-08-09T10:29:05.045Z,13.03
2018-08-09T10:31:33.649Z,11.37
2018-08-09T10:34:02.176Z,12.43
2018-08-09T10:36:30.715Z,11.23
2018-08-09T10:38:59.204Z,7.93
2018-08-09T10:41:27.943Z,12.77
2018-08-09T10:43:56.468Z,11.10
2018-08-09T10:46:24.996Z,10.17
2018-08-09T10:48:53.622Z,16.47
2018-08-09T10:51:22.366Z,9.00
2018-08-09T10:54:03.572Z,11.20
2018-08-09T10:56:42.108Z,12.50
2018-08-09T10:59:10.829Z,9.93
2018-08-09T11:01:39.759Z,9.67
2018-08-09T11:04:08.261Z,9.00
2018-08-09T11:06:39.309Z,11.97
2018-08-09T11:09:09.483Z,9.60
2018-08-09T11:11:38.024Z,14.37
2018-08-09T11:14:06.573Z,12.20
2018-08-09T11:16:35.123Z,14.97
2018-08-09T11:19:03.685Z,9.47
2018-08-09T11:21:35.700Z,14.43
2018-08-09T11:24:05.306Z,13.00
2018-08-09T11:26:34.928Z,12.60
2018-08-09T11:29:05.103Z,11.63
2018-08-09T11:31:33.749Z,10.03
2018-08-09T11:34:02.308Z,8.70
2018-08-09T11:36:30.867Z,10.00
2018-08-09T11:38:59.647Z,14.97
2018-08-09T11:41:28.374Z,10.43
2018-08-09T11:43:56.891Z,13.13
2018-08-09T11:46:25.441Z,9.37
2018-08-09T11:48:55.320Z,12.53
2018-08-09T11:51:23.849Z,12.97
2018-08-09T11:53:52.574Z,12.83
2018-08-09T11:56:21.135Z,13.90
2018-08-09T11:58:49.761Z,10.77
2018-08-09T12:01:18.317Z,12.07
2018-08-09T12:03:46.831Z,10.67
2018-08-09T12:06:15.565Z,15.13
2018-08-09T12:08:44.117Z,11.30
2018-08-09T12:11:14.494Z,22.73
2018-08-09T12:13:43.082Z,24.97
2018-08-09T12:16:11.678Z,25.20
2018-08-09T12:18:41.088Z,23.83
2018-08-09T12:21:09.683Z,14.90
2018-08-09T12:23:38.214Z,16.00
2018-08-09T12:26:07.674Z,19.57
2018-08-09T12:28:36.273Z,26.20
2018-08-09T12:31:05.065Z,19.63
2018-08-09T12:33:33.817Z,13.17
2018-08-09T12:36:02.518Z,14.40
2018-08-09T12:38:31.484Z,15.67
2018-08-09T12:41:00.087Z,12.27
2018-08-09T12:43:28.633Z,16.23
2018-08-09T12:45:57.213Z,11.07
2018-08-09T12:48:25.830Z,9.57
2018-08-09T12:50:54.414Z,11.47
2018-08-09T12:53:22.976Z,14.83
2018-08-09T12:55:51.565Z,12.03
2018-08-09T12:58:20.165Z,12.53
2018-08-09T13:00:48.676Z,9.37
2018-08-09T13:03:17.458Z,12.10
2018-08-09T13:05:45.998Z,9.50
2018-08-09T13:08:14.603Z,9.63
2018-08-09T13:10:43.168Z,15.00
2018-08-09T13:13:12.113Z,9.47
2018-08-09T13:15:40.662Z,10.37
2018-08-09T13:18:09.293Z,13.27
2018-08-09T13:20:37.802Z,11.90
2018-08-09T13:23:06.405Z,7.57
2018-08-09T13:25:34.957Z,7.30
2018-08-09T13:28:03.574Z,10.87
2018-08-09T13:30:32.120Z,8.90
2018-08-09T13:33:00.679Z,9.10
2018-08-09T13:35:29.208Z,6.30
2018-08-09T13:37:57.845Z,7.83
2018-08-09T13:40:26.505Z,5.13
2018-08-09T13:42:55.122Z,9.27
2018-08-09T13:45:23.716Z,8.33
2018-08-09T13:47:53.445Z,7.17
2018-08-09T13:50:21.941Z,8.30
2018-08-09T13:52:50.597Z,5.73
2018-08-09T13:55:19.114Z,6.53
2018-08-09T13:57:47.666Z,5.33
2018-08-09T14:00:19.094Z,12.07
2018-08-09T14:02:47.856Z,9.73
2018-08-09T14:05:16.452Z,7.30
2018-08-09T14:07:45.020Z,7.37
2018-08-09T14:10:13.738Z,7.50
2018-08-09T14:12:43.057Z,5.37
2018-08-09T14:15:13.145Z,9.17
2018-08-09T14:17:41.803Z,4.67
2018-08-09T14:20:12.994Z,6.67
2018-08-09T14:22:42.134Z,5.33
2018-08-09T14:25:11.080Z,3.77
2018-08-09T14:27:39.744Z,5.97
2018-08-09T14:30:10.233Z,7.57
2018-08-09T14:32:38.825Z,4.47
2018-08-09T14:35:09.615Z,6.07
2018-08-09T14:37:38.783Z,6.30
2018-08-09T14:40:08.501Z,5.60
2018-08-09T14:42:37.394Z,6.57
2018-08-09T14:45:11.321Z,4.20
2018-08-09T14:47:39.910Z,5.37
2018-08-09T14:50:08.470Z,5.50
2018-08-09T14:52:37.417Z,9.40
2018-08-09T14:55:07.674Z,5.83
2018-08-09T14:57:36.521Z,7.27
2018-08-09T15:00:08.394Z,5.17
2018-08-09T15:02:36.937Z,5.53
2018-08-09T15:05:05.484Z,5.30
2018-08-09T15:07:34.033Z,4.77
2018-08-09T15:10:02.625Z,8.50
2018-08-09T15:12:31.175Z,9.03
2018-08-09T15:15:00.445Z,3.80
2018-08-09T15:17:29.005Z,5.47
2018-08-09T15:19:57.541Z,4.90
2018-08-09T15:22:26.156Z,7.93
2018-08-09T15:24:54.710Z,4.03
2018-08-09T15:27:23.285Z,3.77
2018-08-09T15:29:51.887Z,2.97
2018-08-09T15:32:20.421Z,5.40
2018-08-09T15:34:49.077Z,4.17
2018-08-09T15:37:17.595Z,6.70
2018-08-09T15:39:46.153Z,3.93
2018-08-09T15:42:14.682Z,8.33
2018-08-09T15:44:43.233Z,5.00
2018-08-09T15:47:11.847Z,3.37
2018-08-09T15:49:41.129Z,3.70
2018-08-09T15:52:09.693Z,3.77
2018-08-09T15:54:38.297Z,3.53
2018-08-09T15:57:06.807Z,4.03
2018-08-09T15:59:35.380Z,3.30
2018-08-09T16:02:03.985Z,7.13
2018-08-09T16:04:32.700Z,6.33
2018-08-09T16:07:01.322Z,4.27
2018-08-09T16:09:29.882Z,2.47
2018-08-09T16:11:58.420Z,5.63
2018-08-09T16:14:26.959Z,3.60
2018-08-09T16:16:55.493Z,4.63
2018-08-09T16:19:24.087Z,3.13
2018-08-09T16:21:52.629Z,4.27
2018-08-09T16:24:21.239Z,4.90
2018-08-09T16:26:49.769Z,4.40
2018-08-09T16:29:18.315Z,4.43
2018-08-09T16:31:46.833Z,4.33
2018-08-09T16:34:15.377Z,4.77
2018-08-09T16:36:43.903Z,8.83
2018-08-09T16:39:14.073Z,6.53
2018-08-09T16:41:42.706Z,5.57
2018-08-09T16:44:11.557Z,4.53
2018-08-09T16:46:40.714Z,5.50
2018-08-09T16:49:09.352Z,5.27
2018-08-09T16:51:37.953Z,4.90
2018-08-09T16:54:06.505Z,5.83
2018-08-09T16:56:35.098Z,6.10
2018-08-09T16:59:03.673Z,3.87
2018-08-09T17:01:32.247Z,4.07
2018-08-09T17:04:00.841Z,3.23
2018-08-09T17:06:29.434Z,5.57
2018-08-09T17:08:58.024Z,5.47
2018-08-09T17:11:26.601Z,4.47
2018-08-09T17:13:55.157Z,4.33
2018-08-09T17:16:24.417Z,3.60
2018-08-09T17:18:52.936Z,5.30
2018-08-09T17:21:21.569Z,1.83
2018-08-09T17:23:50.341Z,5.70
2018-08-09T17:26:18.923Z,6.97
2018-08-09T17:28:47.457Z,8.13
2018-08-09T17:31:16.022Z,5.00
2018-08-09T17:33:44.580Z,4.63
2018-08-09T17:36:13.141Z,3.03
2018-08-09T17:38:41.707Z,2.47
2018-08-09T17:41:10.240Z,2.73
2018-08-09T17:43:38.790Z,4.07
2018-08-09T17:46:07.353Z,4.30
2018-08-09T17:48:35.930Z,2.00
2018-08-09T17:51:04.667Z,4.53
2018-08-09T17:53:33.355Z,3.67
2018-08-09T17:56:01.922Z,3.67
2018-08-09T17:58:31.049Z,1.93
2018-08-09T18:00:59.621Z,4.30
2018-08-09T18:03:28.194Z,2.77
2018-08-09T18:05:56.759Z,2.70
2018-08-09T18:08:25.304Z,2.90
2018-08-09T18:10:53.831Z,3.10
2018-08-09T18:13:22.449Z,3.93
2018-08-09T18:15:51.053Z,3.70
2018-08-09T18:18:19.599Z,3.33
2018-08-09T18:20:48.413Z,5.40
2018-08-09T18:23:17.753Z,4.90
2018-08-09T18:25:47.276Z,2.60
2018-08-09T18:28:15.900Z,3.50
2018-08-09T18:30:44.445Z,3.13
2018-08-09T18:33:13.043Z,3.23
2018-08-09T18:35:42.013Z,4.33
2018-08-09T18:38:10.612Z,2.77
2018-08-09T18:40:39.129Z,4.13
2018-08-09T18:43:08.058Z,4.63
2018-08-09T18:45:36.585Z,2.97
2018-08-09T18:48:05.385Z,3.70
2018-08-09T18:50:33.974Z,3.00
2018-08-09T18:53:33.193Z,2.83
2018-08-09T18:56:01.744Z,2.80
2018-08-09T18:58:30.365Z,2.53
2018-08-09T19:00:58.946Z,5.03
2018-08-09T19:03:27.520Z,3.40
2018-08-09T19:05:56.112Z,4.57
2018-08-09T19:08:24.685Z,3.07
2018-08-09T19:10:53.220Z,2.37
2018-08-09T19:13:21.778Z,4.83
2018-08-09T19:15:50.290Z,2.30
2018-08-09T19:18:18.862Z,2.60
2018-08-09T19:20:47.384Z,3.50
2018-08-09T19:23:16.105Z,1.90
2018-08-09T19:25:44.553Z,2.13
2018-08-09T19:28:13.161Z,1.77
2018-08-09T19:30:41.741Z,3.13
2018-08-09T19:33:10.359Z,1.73
2018-08-09T19:35:38.874Z,1.43
2018-08-09T19:38:07.464Z,4.27
2018-08-09T19:40:36.069Z,2.10
2018-08-09T19:43:05.289Z,2.80
2018-08-09T19:45:33.873Z,1.57
2018-08-09T19:48:02.420Z,1.73
2018-08-09T19:50:31.015Z,1.00
2018-08-09T19:52:59.666Z,0.80
2018-08-09T19:55:28.314Z,1.77
2018-08-09T19:57:56.878Z,2.10
2018-08-09T20:00:27.331Z,2.70
2018-08-09T20:02:55.921Z,1.23
2018-08-09T20:05:24.908Z,2.60
2018-08-09T20:07:53.513Z,2.90
2018-08-09T20:10:22.145Z,2.60
2018-08-09T20:12:50.740Z,4.00
2018-08-09T20:15:20.871Z,1.63
2018-08-09T20:17:49.478Z,1.80
2018-08-09T20:20:19.665Z,2.40
2018-08-09T20:22:48.259Z,2.27
2018-08-09T20:25:17.293Z,1.83
2018-08-09T20:27:46.632Z,4.40
2018-08-09T20:30:17.126Z,2.37
2018-08-09T20:32:46.370Z,3.33
2018-08-09T20:35:17.268Z,1.57
2018-08-09T20:37:46.601Z,1.00
2018-08-09T20:40:15.835Z,1.13
2018-08-09T20:42:45.479Z,2.63
2018-08-09T20:45:15.561Z,3.10
2018-08-09T20:47:44.090Z,2.03
2018-08-09T20:50:16.186Z,1.07
2018-08-09T20:52:45.598Z,1.97
2018-08-09T20:55:14.304Z,1.00
2018-08-09T20:57:43.674Z,1.30
2018-08-09T21:00:15.769Z,1.60
2018-08-09T21:02:45.346Z,1.00
2018-08-09T21:05:21.229Z,1.80
2018-08-09T21:07:50.444Z,1.73
2018-08-09T21:10:19.018Z,1.10
2018-08-09T21:12:47.553Z,4.70
2018-08-09T21:15:16.517Z,1.17
2018-08-09T21:17:45.394Z,1.53
2018-08-09T21:20:14.678Z,2.70
2018-08-09T21:22:44.140Z,2.00
2018-08-09T21:25:13.333Z,1.10
2018-08-09T21:27:42.048Z,0.70
2018-08-09T21:30:12.656Z,1.60
2018-08-09T21:32:41.770Z,6.00
2018-08-09T21:35:10.900Z,0.90
2018-08-09T21:37:40.374Z,2.23
2018-08-09T21:40:10.325Z,0.80
2018-08-09T21:42:38.897Z,1.83
2018-08-09T21:45:10.405Z,0.80
2018-08-09T21:47:38.937Z,1.13
2018-08-09T21:50:13.985Z,2.90
2018-08-09T21:52:42.938Z,0.87
2018-08-09T21:55:12.484Z,3.60
2018-08-09T21:57:41.740Z,4.10
2018-08-09T22:01:19.213Z,1.13
2018-08-09T22:03:47.721Z,0.70
2018-08-09T22:06:21.534Z,3.17
2018-08-09T22:08:55.473Z,0.87
2018-08-09T22:11:29.392Z,1.37
2018-08-09T22:14:03.301Z,3.57
2018-08-09T22:16:37.294Z,2.07
2018-08-09T22:19:11.449Z,1.07
2018-08-09T22:21:45.718Z,0.77
2018-08-09T22:24:14.230Z,1.50
2018-08-09T22:26:42.866Z,0.83
2018-08-09T22:29:11.432Z,4.70
2018-08-09T22:31:39.982Z,2.67
2018-08-09T22:34:08.497Z,1.90
2018-08-09T22:36:37.056Z,1.07
2018-08-09T22:39:08.290Z,0.50
2018-08-09T22:41:36.875Z,0.80
2018-08-09T22:44:05.905Z,0.60
2018-08-09T22:46:34.477Z,1.03
2018-08-09T22:49:03.024Z,0.73
2018-08-09T22:51:31.548Z,1.03
2018-08-09T22:54:00.109Z,2.20
2018-08-09T22:56:28.673Z,0.83
2018-08-09T22:58:57.237Z,2.60
2018-08-09T23:01:25.836Z,1.07
2018-08-09T23:03:54.393Z,2.20
2018-08-09T23:06:22.946Z,1.60
2018-08-09T23:08:51.512Z,3.67
2018-08-09T23:11:20.104Z,1.07
2018-08-09T23:13:48.638Z,1.03
2018-08-09T23:16:17.178Z,0.47
2018-08-09T23:18:45.752Z,2.33
2018-08-09T23:21:14.330Z,0.83
2018-08-09T23:23:42.921Z,0.40
2018-08-09T23:26:11.436Z,0.50
2018-08-09T23:28:39.999Z,1.13
2018-08-09T23:31:08.549Z,0.90
2018-08-09T23:33:37.092Z,0.40
2018-08-09T23:36:05.645Z,1.20
2018-08-09T23:38:34.173Z,0.90
2018-08-09T23:41:03.002Z,0.30
2018-08-09T23:43:31.547Z,0.40
2018-08-09T23:46:00.056Z,1.50
2018-08-09T23:48:28.613Z,1.17
2018-08-09T23:50:57.137Z,1.03
2018-08-09T23:53:25.720Z,0.93
2018-08-09T23:55:54.232Z,1.53
2018-08-09T23:58:22.774Z,3.53
